Time;durP1;ratioP1;P1;durP2;ratioP2;P2;SDS_P1;SDS_P2;PMS_P1;PMS_P2;Temp;Humidity;BMP_temperature;BMP_pressure;BME280_temperature;BME280_humidity;BME280_pressure;Samples;Min_cycle;Max_cycle;Signal;HPM_P1;HPM_P2
2023/08/22 00:00:40;;;;;;;8.85;4.75;;;24.40;99.90;;;;;;5017558;28;20151;-67
2023/08/22 00:03:06;;;;;;;10.55;4.90;;;24.30;99.90;;;;;;5017430;28;20026;-67
2023/08/22 00:05:32;;;;;;;8.30;4.22;;;24.30;99.90;;;;;;5016686;28;20029;-67
2023/08/22 00:07:59;;;;;;;14.25;5.00;;;24.20;99.90;;;;;;5016687;28;20116;-67
2023/08/22 00:10:25;;;;;;;11.77;4.60;;;24.20;99.90;;;;;;5016809;28;20032;-67
2023/08/22 00:12:50;;;;;;;6.70;4.60;;;24.10;99.90;;;;;;5016521;28;20029;-67
2023/08/22 00:15:16;;;;;;;7.05;4.97;;;24.00;99.90;;;;;;5016559;28;20022;-67
2023/08/22 00:17:42;;;;;;;7.32;4.63;;;24.00;99.90;;;;;;5016504;28;20029;-67
2023/08/22 00:20:11;;;;;;;7.43;4.75;;;23.90;99.90;;;;;;5017411;28;20036;-67
2023/08/22 00:22:37;;;;;;;7.00;4.70;;;23.90;99.90;;;;;;5017172;28;20030;-66
2023/08/22 00:25:04;;;;;;;11.00;5.05;;;23.90;99.90;;;;;;5016282;28;20030;-67
2023/08/22 00:27:30;;;;;;;11.30;4.60;;;23.90;99.90;;;;;;5016159;28;20048;-67
2023/08/22 00:29:57;;;;;;;5.97;4.53;;;23.90;99.90;;;;;;5016706;28;20022;-67
2023/08/22 00:32:25;;;;;;;10.63;5.63;;;23.80;99.90;;;;;;5016484;28;20022;-67
2023/08/22 00:34:51;;;;;;;12.77;4.72;;;23.80;99.90;;;;;;5016459;28;20048;-67
2023/08/22 00:37:17;;;;;;;10.93;4.53;;;23.80;99.90;;;;;;5017100;28;20030;-67
2023/08/22 00:39:43;;;;;;;5.05;4.13;;;23.80;99.90;;;;;;5016268;28;20084;-67
2023/08/22 00:42:08;;;;;;;8.93;4.80;;;23.80;99.90;;;;;;5017170;28;20030;-67
2023/08/22 00:44:34;;;;;;;10.88;5.13;;;23.70;99.90;;;;;;5016604;28;20076;-66
2023/08/22 00:47:00;;;;;;;12.40;5.00;;;23.60;99.90;;;;;;5016723;28;20121;-67
2023/08/22 00:49:26;;;;;;;12.20;4.38;;;23.60;99.90;;;;;;5016966;28;20072;-67
2023/08/22 00:51:52;;;;;;;9.43;4.28;;;23.60;99.90;;;;;;5016276;28;20022;-67
2023/08/22 00:54:19;;;;;;;11.80;5.28;;;23.60;99.90;;;;;;5016032;28;20022;-67
2023/08/22 00:56:45;;;;;;;9.60;4.57;;;23.60;99.90;;;;;;5016129;28;20022;-67
2023/08/22 00:59:11;;;;;;;9.05;4.35;;;23.50;99.90;;;;;;5016367;28;20022;-67
2023/08/22 01:01:36;;;;;;;6.05;3.92;;;23.40;99.90;;;;;;5016145;28;20030;-67
2023/08/22 01:04:02;;;;;;;10.05;4.78;;;23.40;99.90;;;;;;5017192;28;20121;-67
2023/08/22 01:06:58;;;;;;;7.20;4.60;;;23.40;99.90;;;;;;5019889;28;20030;-66
2023/08/22 01:09:35;;;;;;;8.40;5.00;;;23.30;99.90;;;;;;5020766;28;20014;-66
2023/08/22 01:12:12;;;;;;;8.48;4.32;;;23.30;99.90;;;;;;5020739;28;20026;-66
2023/08/22 01:14:43;;;;;;;10.48;4.68;;;23.30;99.90;;;;;;5019650;28;20022;-66
2023/08/22 01:17:09;;;;;;;13.00;5.43;;;23.30;99.90;;;;;;5020811;28;20025;-67
2023/08/22 01:19:35;;;;;;;9.45;4.32;;;23.20;99.90;;;;;;5019989;28;20269;-66
2023/08/22 01:22:01;;;;;;;9.98;4.47;;;23.10;99.90;;;;;;5019852;28;20025;-66
2023/08/22 01:24:26;;;;;;;16.15;7.28;;;23.10;99.90;;;;;;5020323;28;20037;-66
2023/08/22 01:26:52;;;;;;;11.32;6.00;;;23.10;99.90;;;;;;5020178;28;20018;-67
2023/08/22 01:29:35;;;;;;;8.88;4.47;;;23.10;99.90;;;;;;5020189;28;20072;-67
2023/08/22 01:32:16;;;;;;;7.63;4.38;;;23.10;99.90;;;;;;5019917;28;20022;-66
2023/08/22 01:34:42;;;;;;;9.07;3.90;;;23.10;99.90;;;;;;5020131;28;20025;-66
2023/08/22 01:37:10;;;;;;;6.07;3.92;;;23.10;99.90;;;;;;5019363;28;20026;-67
2023/08/22 01:39:37;;;;;;;10.23;4.45;;;23.10;99.90;;;;;;5019983;28;20136;-66
2023/08/22 01:42:03;;;;;;;7.05;3.85;;;23.10;99.90;;;;;;5019813;28;20026;-66
2023/08/22 01:44:29;;;;;;;7.95;4.00;;;23.10;99.90;;;;;;5019479;28;20038;-67
2023/08/22 01:46:55;;;;;;;8.65;4.60;;;23.10;99.90;;;;;;5019008;28;20113;-67
2023/08/22 01:49:20;;;;;;;6.47;4.03;;;23.00;99.90;;;;;;5019374;28;20030;-67
2023/08/22 01:51:46;;;;;;;8.43;4.93;;;22.90;99.90;;;;;;5019016;28;20024;-67
2023/08/22 01:54:11;;;;;;;11.20;5.25;;;22.90;99.90;;;;;;5018940;28;20068;-67
2023/08/22 01:56:37;;;;;;;10.65;3.97;;;22.90;99.90;;;;;;5019120;28;20030;-67
2023/08/22 01:59:03;;;;;;;9.80;4.68;;;22.80;99.90;;;;;;5019190;28;20026;-67
2023/08/22 02:01:28;;;;;;;12.65;4.60;;;22.60;99.90;;;;;;5018850;28;20026;-66
2023/08/22 02:03:54;;;;;;;6.82;3.85;;;22.50;99.90;;;;;;5018552;28;20034;-67
2023/08/22 02:06:19;;;;;;;9.15;4.32;;;22.50;99.90;;;;;;5018766;28;20026;-67
2023/08/22 02:08:45;;;;;;;7.95;4.60;;;22.50;99.90;;;;;;5018761;28;20018;-67
2023/08/22 02:11:10;;;;;;;8.82;4.32;;;22.50;99.90;;;;;;5018697;28;20129;-67
2023/08/22 02:13:36;;;;;;;10.02;4.50;;;22.50;99.90;;;;;;5018978;28;20018;-67
2023/08/22 02:16:02;;;;;;;9.18;4.10;;;22.60;99.90;;;;;;5017538;28;20022;-67
2023/08/22 02:18:27;;;;;;;9.30;4.75;;;22.60;99.90;;;;;;5019274;28;20025;-66
2023/08/22 02:20:55;;;;;;;9.48;4.57;;;22.60;99.90;;;;;;5018838;28;20108;-67
2023/08/22 02:23:21;;;;;;;8.40;4.32;;;22.60;99.90;;;;;;5019473;28;20032;-67
2023/08/22 02:25:46;;;;;;;8.75;4.32;;;22.60;99.90;;;;;;5019312;28;20100;-67
2023/08/22 02:28:12;;;;;;;7.05;4.82;;;22.50;99.90;;;;;;5019361;28;20025;-66
2023/08/22 02:30:38;;;;;;;8.13;4.43;;;22.50;99.90;;;;;;5018302;28;20022;-66
2023/08/22 02:33:04;;;;;;;13.55;4.65;;;22.40;99.90;;;;;;5018118;28;20018;-67
2023/08/22 02:35:29;;;;;;;8.93;5.13;;;22.40;99.90;;;;;;5018526;28;20057;-66
2023/08/22 02:37:55;;;;;;;7.70;4.63;;;22.40;99.90;;;;;;5018252;28;20034;-67
2023/08/22 02:40:20;;;;;;;10.30;5.05;;;22.40;99.90;;;;;;5018120;28;20177;-67
2023/08/22 02:42:46;;;;;;;8.02;5.03;;;22.50;99.90;;;;;;5018150;28;20041;-68
2023/08/22 02:45:11;;;;;;;7.07;4.15;;;22.50;99.90;;;;;;5018663;28;20033;-69
2023/08/22 02:47:37;;;;;;;6.93;4.10;;;22.40;99.90;;;;;;5018293;28;20072;-69
2023/08/22 02:50:04;;;;;;;7.03;4.57;;;22.20;99.90;;;;;;5018727;28;20033;-69
2023/08/22 02:52:30;;;;;;;8.13;5.25;;;22.20;99.90;;;;;;5017821;28;20049;-69
2023/08/22 02:54:56;;;;;;;9.68;4.55;;;22.10;99.90;;;;;;5018743;28;20028;-69
2023/08/22 02:57:21;;;;;;;7.20;4.60;;;22.00;99.90;;;;;;5017927;28;20033;-69
2023/08/22 02:59:47;;;;;;;10.68;4.88;;;22.00;99.90;;;;;;5017822;28;20030;-69
2023/08/22 03:02:12;;;;;;;9.30;4.70;;;22.00;99.90;;;;;;5018058;28;20055;-69
2023/08/22 03:04:38;;;;;;;10.73;4.47;;;22.00;99.90;;;;;;5017553;28;20068;-69
2023/08/22 03:07:04;;;;;;;7.07;4.53;;;22.00;99.90;;;;;;5017934;28;20051;-69
2023/08/22 03:09:30;;;;;;;10.23;4.70;;;22.00;99.90;;;;;;5017550;28;20054;-69
2023/08/22 03:11:56;;;;;;;8.43;4.78;;;22.00;99.90;;;;;;5018434;28;20105;-69
2023/08/22 03:14:22;;;;;;;8.25;4.95;;;22.00;99.90;;;;;;5017578;28;20045;-69
2023/08/22 03:16:47;;;;;;;9.65;5.18;;;22.10;99.90;;;;;;5017478;28;20034;-69
2023/08/22 03:19:13;;;;;;;6.78;4.68;;;22.10;99.90;;;;;;5017411;28;20030;-69
2023/08/22 03:21:38;;;;;;;8.07;4.82;;;22.10;99.90;;;;;;5017353;28;20116;-69
2023/08/22 03:24:04;;;;;;;7.22;5.07;;;22.00;99.90;;;;;;5017215;28;20057;-69
2023/08/22 03:26:30;;;;;;;8.45;4.88;;;22.00;99.90;;;;;;5017105;28;20026;-69
2023/08/22 03:28:55;;;;;;;11.73;4.65;;;21.80;99.90;;;;;;5018038;28;20033;-69
2023/08/22 03:31:26;;;;;;;7.63;4.47;;;21.80;99.90;;;;;;5017178;28;20023;-69
2023/08/22 03:33:51;;;;;;;13.27;5.10;;;21.80;99.90;;;;;;5018266;28;20025;-69
2023/08/22 03:36:17;;;;;;;10.65;4.82;;;21.80;99.90;;;;;;5017394;28;20030;-69
2023/08/22 03:38:43;;;;;;;10.75;5.57;;;21.70;99.90;;;;;;5017324;28;20041;-69
2023/08/22 03:41:08;;;;;;;10.05;4.88;;;21.70;99.90;;;;;;5017284;28;20053;-69
2023/08/22 03:43:34;;;;;;;10.35;5.20;;;21.70;99.90;;;;;;5017095;28;20061;-69
2023/08/22 03:45:59;;;;;;;11.13;5.43;;;21.70;99.90;;;;;;5016820;28;20032;-69
2023/08/22 03:48:25;;;;;;;9.00;4.78;;;21.80;99.90;;;;;;5017898;28;20062;-69
2023/08/22 03:50:50;;;;;;;12.43;4.78;;;21.90;99.90;;;;;;5016876;28;20112;-69
2023/08/22 03:53:16;;;;;;;8.18;4.97;;;21.90;99.90;;;;;;5016681;28;20049;-69
2023/08/22 03:55:43;;;;;;;9.52;4.38;;;21.90;99.90;;;;;;5016774;28;20124;-69
2023/08/22 03:58:10;;;;;;;7.68;4.40;;;21.90;99.90;;;;;;5017071;28;20117;-69
2023/08/22 04:00:36;;;;;;;11.00;4.82;;;21.80;99.90;;;;;;5016731;28;20034;-69
2023/08/22 04:03:02;;;;;;;6.13;4.25;;;21.80;99.90;;;;;;5016669;28;20079;-69
2023/08/22 04:05:27;;;;;;;6.43;3.90;;;21.80;99.90;;;;;;5016703;28;20099;-69
2023/08/22 04:07:53;;;;;;;13.52;4.88;;;21.70;99.90;;;;;;5016754;28;20030;-69
2023/08/22 04:10:20;;;;;;;8.18;4.50;;;21.60;99.90;;;;;;5016553;28;20145;-69
2023/08/22 04:12:45;;;;;;;10.50;4.38;;;21.60;99.90;;;;;;5016730;28;20018;-69
2023/08/22 04:15:12;;;;;;;11.25;4.90;;;21.60;99.90;;;;;;5016492;28;20029;-69
2023/08/22 04:17:40;;;;;;;12.10;4.57;;;21.50;99.90;;;;;;5016559;28;20030;-69
2023/08/22 04:20:11;;;;;;;8.98;4.75;;;21.50;99.90;;;;;;5017429;28;20022;-69
2023/08/22 04:22:37;;;;;;;9.52;4.47;;;21.50;99.90;;;;;;5016476;28;20030;-69
2023/08/22 04:25:04;;;;;;;7.95;4.00;;;21.40;99.90;;;;;;5016344;28;20034;-69
2023/08/22 04:27:30;;;;;;;10.52;4.70;;;21.30;99.90;;;;;;5017513;28;20045;-69
2023/08/22 04:29:56;;;;;;;9.90;4.93;;;21.40;99.90;;;;;;5016476;28;20025;-69
2023/08/22 04:32:21;;;;;;;4.90;4.35;;;21.40;99.90;;;;;;5016622;28;20037;-69
2023/08/22 04:34:47;;;;;;;11.85;4.85;;;21.30;99.90;;;;;;5016583;28;20022;-69
2023/08/22 04:37:12;;;;;;;8.77;4.50;;;21.20;99.90;;;;;;5016555;28;20032;-69
2023/08/22 04:39:38;;;;;;;9.10;4.53;;;21.20;99.90;;;;;;5018609;28;20037;-69
2023/08/22 04:42:03;;;;;;;11.38;4.40;;;21.10;99.90;;;;;;5021039;28;20030;-69
2023/08/22 04:44:29;;;;;;;10.45;4.68;;;21.10;99.90;;;;;;5020277;28;20038;-69
2023/08/22 04:46:55;;;;;;;8.45;4.97;;;21.20;99.90;;;;;;5020476;28;20024;-69
2023/08/22 04:49:20;;;;;;;8.35;4.95;;;21.20;99.90;;;;;;5021444;28;20018;-69
2023/08/22 04:51:46;;;;;;;9.52;4.40;;;21.10;99.90;;;;;;5020522;28;20026;-69
2023/08/22 04:54:11;;;;;;;8.20;4.13;;;21.10;99.90;;;;;;5020449;28;20025;-69
2023/08/22 04:56:37;;;;;;;14.80;4.95;;;21.20;99.90;;;;;;5021201;28;20083;-69
2023/08/22 04:59:02;;;;;;;7.05;4.47;;;21.20;99.90;;;;;;5021174;28;20053;-69
2023/08/22 05:01:28;;;;;;;10.55;5.05;;;21.20;99.90;;;;;;5020165;28;20129;-69
2023/08/22 05:03:53;;;;;;;6.35;4.70;;;21.30;99.90;;;;;;5019965;28;20018;-69
2023/08/22 05:06:19;;;;;;;11.63;4.78;;;21.30;99.90;;;;;;5019798;28;20026;-69
2023/08/22 05:08:44;;;;;;;12.93;5.05;;;21.40;99.90;;;;;;5020123;28;20029;-69
2023/08/22 05:11:10;;;;;;;7.03;4.88;;;21.40;99.90;;;;;;5019870;28;20029;-69
2023/08/22 05:13:35;;;;;;;10.85;4.45;;;21.40;99.90;;;;;;5019925;28;20022;-69
2023/08/22 05:16:01;;;;;;;15.27;5.30;;;21.50;99.90;;;;;;5020386;28;20029;-69
2023/08/22 05:18:26;;;;;;;8.90;5.20;;;21.60;99.90;;;;;;5019477;28;20022;-69
2023/08/22 05:20:52;;;;;;;13.05;5.85;;;21.60;99.90;;;;;;5019598;28;20022;-69
2023/08/22 05:23:18;;;;;;;6.28;4.40;;;21.50;99.90;;;;;;5019472;28;20022;-69
2023/08/22 05:25:43;;;;;;;13.93;5.00;;;21.60;99.90;;;;;;5019475;28;20021;-69
2023/08/22 05:28:09;;;;;;;9.13;5.53;;;21.50;99.90;;;;;;5019432;28;20121;-69
2023/08/22 05:30:38;;;;;;;15.43;5.15;;;21.50;99.90;;;;;;5019431;28;20072;-69
2023/08/22 05:33:04;;;;;;;11.15;5.68;;;21.40;99.90;;;;;;5020303;28;20028;-69
2023/08/22 05:35:30;;;;;;;9.77;5.15;;;21.50;99.90;;;;;;5019371;28;20116;-69
2023/08/22 05:37:55;;;;;;;8.82;5.45;;;21.50;99.90;;;;;;5020236;28;20050;-69
2023/08/22 05:40:21;;;;;;;9.35;5.63;;;21.60;99.90;;;;;;5019237;28;20089;-69
2023/08/22 05:42:46;;;;;;;14.18;6.47;;;21.80;99.90;;;;;;5019174;28;20110;-69
2023/08/22 05:45:12;;;;;;;9.95;5.10;;;21.90;99.90;;;;;;5019452;28;20034;-69
2023/08/22 05:47:38;;;;;;;13.40;5.68;;;21.90;99.90;;;;;;5019071;28;20034;-69
2023/08/22 05:50:06;;;;;;;9.95;5.32;;;22.10;99.90;;;;;;5019900;28;20080;-69
2023/08/22 05:52:31;;;;;;;7.32;5.53;;;22.30;99.90;;;;;;5018961;28;20025;-69
2023/08/22 05:54:57;;;;;;;11.35;5.70;;;22.50;99.90;;;;;;5019868;28;20022;-69
2023/08/22 05:57:23;;;;;;;11.57;5.60;;;22.50;99.90;;;;;;5018950;28;20060;-69
2023/08/22 05:59:49;;;;;;;8.27;5.28;;;22.60;99.90;;;;;;5018880;28;20036;-69
2023/08/22 06:02:15;;;;;;;10.02;5.82;;;22.50;99.90;;;;;;5018856;28;20120;-69
2023/08/22 06:04:40;;;;;;;14.25;5.53;;;22.30;99.90;;;;;;5019665;28;20057;-69
2023/08/22 06:07:06;;;;;;;10.90;5.63;;;22.40;99.90;;;;;;5018869;28;20026;-69
2023/08/22 06:09:32;;;;;;;10.77;5.85;;;22.50;99.90;;;;;;5019601;28;20026;-69
2023/08/22 06:11:57;;;;;;;11.27;6.00;;;22.50;99.90;;;;;;5019440;28;20021;-69
2023/08/22 06:14:23;;;;;;;16.33;5.47;;;22.40;99.90;;;;;;5019021;28;20025;-69
2023/08/22 06:16:48;;;;;;;9.18;5.13;;;22.50;99.90;;;;;;5018594;28;20026;-69
2023/08/22 06:19:14;;;;;;;9.02;4.85;;;22.60;99.90;;;;;;5018631;28;20026;-69
2023/08/22 06:21:39;;;;;;;8.95;5.65;;;22.60;99.90;;;;;;5018478;28;20089;-69
2023/08/22 06:24:05;;;;;;;11.32;5.40;;;22.50;99.90;;;;;;5018256;28;20030;-69
2023/08/22 06:26:31;;;;;;;10.98;5.20;;;22.50;99.90;;;;;;5018402;28;20026;-68
2023/08/22 06:28:57;;;;;;;15.70;5.60;;;22.50;99.90;;;;;;5019499;28;20018;-69
2023/08/22 06:31:23;;;;;;;10.45;5.00;;;22.50;99.90;;;;;;5018250;28;20026;-69
2023/08/22 06:33:49;;;;;;;12.75;6.25;;;22.40;99.90;;;;;;5018325;28;20072;-70
2023/08/22 06:36:14;;;;;;;10.60;5.20;;;22.50;99.90;;;;;;5019453;28;20032;-68
2023/08/22 06:38:40;;;;;;;15.95;5.28;;;22.50;99.90;;;;;;5018242;28;20030;-68
2023/08/22 06:41:06;;;;;;;9.55;5.32;;;22.50;99.90;;;;;;5018422;28;20120;-69
2023/08/22 06:43:31;;;;;;;9.18;4.68;;;22.40;99.90;;;;;;5017909;28;20038;-68
2023/08/22 06:45:57;;;;;;;7.10;5.20;;;22.50;99.90;;;;;;5017951;28;20080;-68
2023/08/22 06:48:22;;;;;;;14.73;5.03;;;22.70;99.90;;;;;;5017950;28;20050;-68
2023/08/22 06:50:51;;;;;;;12.02;5.32;;;22.70;99.90;;;;;;5018016;28;20061;-68
2023/08/22 06:53:17;;;;;;;13.65;4.95;;;22.60;99.90;;;;;;5017912;28;20072;-67
2023/08/22 06:55:46;;;;;;;10.40;5.28;;;22.50;99.90;;;;;;5018224;28;20030;-68
2023/08/22 06:58:12;;;;;;;12.77;5.05;;;22.30;99.90;;;;;;5017749;28;20084;-68
2023/08/22 07:00:38;;;;;;;5.43;4.38;;;22.40;99.90;;;;;;5017924;28;20033;-68
2023/08/22 07:03:03;;;;;;;11.43;6.35;;;22.50;99.90;;;;;;5017352;28;20034;-68
2023/08/22 07:05:29;;;;;;;11.13;4.93;;;22.50;99.90;;;;;;5018022;28;20026;-68
2023/08/22 07:07:54;;;;;;;8.90;5.07;;;22.30;99.90;;;;;;5017917;28;20031;-68
2023/08/22 07:10:20;;;;;;;10.13;5.18;;;22.50;99.90;;;;;;5017963;28;20018;-68
2023/08/22 07:12:46;;;;;;;7.07;5.13;;;22.60;99.90;;;;;;5017487;28;20033;-68
2023/08/22 07:15:11;;;;;;;7.88;4.40;;;22.80;99.90;;;;;;5017456;28;20022;-68
2023/08/22 07:17:37;;;;;;;12.32;4.85;;;22.90;99.90;;;;;;5018073;28;20040;-69
2023/08/22 07:20:03;;;;;;;9.85;5.00;;;23.00;99.90;;;;;;5018624;28;20033;-68
2023/08/22 07:22:29;;;;;;;10.77;4.78;;;22.80;99.90;;;;;;5018516;28;20030;-68
2023/08/22 07:24:54;;;;;;;10.38;4.70;;;22.70;99.90;;;;;;5018197;28;20037;-68
2023/08/22 07:27:21;;;;;;;8.07;4.78;;;23.00;99.90;;;;;;5018232;28;20035;-68
2023/08/22 07:29:47;;;;;;;7.72;4.70;;;23.10;99.90;;;;;;5017219;28;20025;-68
2023/08/22 07:32:12;;;;;;;8.48;4.65;;;23.20;99.90;;;;;;5017251;28;20029;-68
2023/08/22 07:34:38;;;;;;;5.47;4.15;;;23.40;99.90;;;;;;5017347;28;20076;-68
2023/08/22 07:37:03;;;;;;;7.50;4.85;;;23.40;99.90;;;;;;5018424;28;20034;-68
2023/08/22 07:39:29;;;;;;;8.63;4.60;;;23.40;99.90;;;;;;5017122;28;20030;-68
2023/08/22 07:41:55;;;;;;;12.23;4.78;;;23.30;99.90;;;;;;5017267;28;20026;-68
2023/08/22 07:44:20;;;;;;;8.30;4.32;;;23.50;99.90;;;;;;5017438;28;20095;-68
2023/08/22 07:46:46;;;;;;;7.78;4.20;;;23.70;99.90;;;;;;5016765;28;20030;-68
2023/08/22 07:49:11;;;;;;;9.40;4.20;;;23.70;99.90;;;;;;5016832;28;20018;-68
2023/08/22 07:51:37;;;;;;;10.75;4.45;;;23.80;99.90;;;;;;5017091;28;20106;-68
2023/08/22 07:54:03;;;;;;;12.10;5.18;;;24.00;99.90;;;;;;5016732;28;20029;-69
2023/08/22 07:56:29;;;;;;;10.95;4.07;;;24.00;99.90;;;;;;5017738;28;20036;-69
2023/08/22 07:58:55;;;;;;;8.68;4.75;;;24.10;99.90;;;;;;5017562;28;20116;-68
2023/08/22 08:01:20;;;;;;;11.32;4.40;;;24.10;99.90;;;;;;5017892;28;20025;-69
2023/08/22 08:03:46;;;;;;;5.40;3.47;;;24.20;99.90;;;;;;5016611;28;20124;-68
2023/08/22 08:06:11;;;;;;;5.90;3.83;;;24.30;99.90;;;;;;5016571;28;20022;-69
2023/08/22 08:08:37;;;;;;;14.85;4.40;;;24.60;99.90;;;;;;5016600;28;20068;-69
2023/08/22 08:11:02;;;;;;;9.68;4.50;;;24.70;99.90;;;;;;5016869;28;20014;-69
2023/08/22 08:13:28;;;;;;;6.85;3.80;;;24.70;99.90;;;;;;5015757;28;20022;-69
2023/08/22 08:15:53;;;;;;;9.43;4.47;;;24.70;99.90;;;;;;5016441;28;20014;-69
2023/08/22 08:18:20;;;;;;;5.50;3.70;;;24.70;99.90;;;;;;5016859;28;20026;-69
2023/08/22 08:20:46;;;;;;;9.82;3.85;;;24.70;99.90;;;;;;5016885;28;20030;-69
2023/08/22 08:23:12;;;;;;;7.72;3.60;;;24.80;99.90;;;;;;5016317;28;20029;-69
2023/08/22 08:25:37;;;;;;;6.32;3.53;;;24.90;99.90;;;;;;5016757;28;20084;-69
2023/08/22 08:28:05;;;;;;;9.90;3.55;;;24.90;99.90;;;;;;5016198;28;20120;-69
2023/08/22 08:30:31;;;;;;;4.47;3.50;;;25.00;99.90;;;;;;5017379;28;20018;-69
2023/08/22 08:32:56;;;;;;;12.45;3.53;;;25.20;99.90;;;;;;5016602;28;20022;-69
2023/08/22 08:35:22;;;;;;;8.75;3.75;;;25.20;99.90;;;;;;5016358;28;20022;-69
2023/08/22 08:37:48;;;;;;;7.82;3.42;;;25.20;99.90;;;;;;5016291;28;20032;-69
2023/08/22 08:40:14;;;;;;;8.52;3.50;;;25.30;99.90;;;;;;5017339;28;20026;-70
2023/08/22 08:42:41;;;;;;;11.43;3.70;;;25.40;99.90;;;;;;5016288;28;20084;-69
2023/08/22 08:45:07;;;;;;;7.15;3.60;;;25.50;99.90;;;;;;5040606;22;20050;-65
2023/08/22 08:47:34;;;;;;;9.55;3.58;;;25.50;99.90;;;;;;5016094;28;20030;-65
2023/08/22 08:50:01;;;;;;;9.35;3.75;;;25.50;99.90;;;;;;5016254;28;20033;-65
2023/08/22 08:52:29;;;;;;;4.55;3.30;;;25.50;99.90;;;;;;5016081;28;20080;-65
2023/08/22 08:54:56;;;;;;;8.90;3.72;;;25.60;99.90;;;;;;5016353;28;20022;-65
2023/08/22 08:57:21;;;;;;;5.18;3.35;;;25.70;99.90;;;;;;5016226;28;20061;-66
2023/08/22 08:59:47;;;;;;;8.85;3.30;;;25.60;99.90;;;;;;5016045;28;20068;-65
2023/08/22 09:02:16;;;;;;;6.72;3.20;;;25.60;99.90;;;;;;5016468;28;20068;-64
2023/08/22 09:04:42;;;;;;;3.97;2.97;;;25.70;99.90;;;;;;5016756;28;20030;-64
2023/08/22 09:07:08;;;;;;;6.78;2.92;;;25.70;99.90;;;;;;5016956;28;20076;-65
2023/08/22 09:09:37;;;;;;;7.95;3.83;;;25.80;99.90;;;;;;5016894;28;20036;-65
2023/08/22 09:12:08;;;;;;;9.23;3.40;;;25.80;99.90;;;;;;5016318;28;20029;-66
2023/08/22 09:14:34;;;;;;;;;;;25.90;99.90;;;;;;5017248;28;20023;-67
2023/08/22 09:17:03;;;;;;;9.77;3.17;;;26.00;99.90;;;;;;5016800;28;19912;-67
2023/08/22 09:19:33;;;;;;;10.45;3.30;;;26.20;99.90;;;;;;5016285;28;20043;-68
2023/08/22 09:22:00;;;;;;;4.60;3.00;;;26.20;99.90;;;;;;5015796;28;20029;-67
2023/08/22 09:24:29;;;;;;;5.57;2.42;;;26.40;99.90;;;;;;5017250;28;20022;-68
2023/08/22 09:26:55;;;;;;;8.05;2.65;;;26.40;99.90;;;;;;5019490;28;20088;-68
2023/08/22 09:29:28;;;;;;;8.43;2.85;;;26.60;99.90;;;;;;5020367;28;20022;-68
2023/08/22 09:32:04;;;;;;;4.32;2.13;;;26.60;99.90;;;;;;5020614;28;20027;-68
2023/08/22 09:34:31;;;;;;;4.95;2.58;;;26.60;99.90;;;;;;5020209;28;20097;-68
2023/08/22 09:36:57;;;;;;;6.22;2.55;;;26.80;99.90;;;;;;5019548;28;20028;-68
2023/08/22 09:39:23;;;;;;;6.97;2.58;;;26.90;99.90;;;;;;5019324;28;20026;-68
2023/08/22 09:41:55;;;;;;;12.05;2.78;;;27.10;99.90;;;;;;5020185;28;20030;-68
2023/08/22 09:44:23;;;;;;;8.88;2.70;;;27.10;99.90;;;;;;5019423;28;20033;-68
2023/08/22 09:46:51;;;;;;;5.22;2.40;;;27.20;99.90;;;;;;5020156;28;20033;-68
2023/08/22 09:49:17;;;;;;;6.82;2.78;;;27.30;99.90;;;;;;5019113;28;20045;-68
2023/08/22 09:51:47;;;;;;;7.07;2.25;;;27.40;99.90;;;;;;5020157;28;20018;-68
2023/08/22 09:54:14;;;;;;;3.43;2.17;;;27.40;99.90;;;;;;5019889;28;20049;-68
2023/08/22 09:56:40;;;;;;;11.13;2.88;;;27.40;99.90;;;;;;5019238;28;20268;-68
2023/08/22 09:59:06;;;;;;;6.15;2.90;;;27.60;99.90;;;;;;5018957;28;20120;-68
2023/08/22 10:01:34;;;;;;;7.63;2.58;;;27.40;99.90;;;;;;5019147;28;20052;-68
2023/08/22 10:04:04;;;;;;;6.25;2.53;;;27.50;99.90;;;;;;5018787;28;20026;-68
2023/08/22 10:06:33;;;;;;;3.85;2.25;;;27.60;99.90;;;;;;5018737;28;20113;-68
2023/08/22 10:09:00;;;;;;;3.30;2.05;;;27.70;99.90;;;;;;5018835;28;20045;-68
2023/08/22 10:11:27;;;;;;;3.08;2.33;;;27.80;99.90;;;;;;5018885;28;20022;-68
2023/08/22 10:13:53;;;;;;;10.77;2.92;;;28.00;99.90;;;;;;5019886;28;20054;-68
2023/08/22 10:16:20;;;;;;;6.53;2.60;;;28.00;99.90;;;;;;5018541;28;20033;-68
2023/08/22 10:18:47;;;;;;;3.13;1.80;;;28.20;99.90;;;;;;5018937;28;20093;-68
2023/08/22 10:21:12;;;;;;;5.65;2.20;;;28.40;99.90;;;;;;5019507;28;20029;-68
2023/08/22 10:23:54;;;;;;;5.43;1.98;;;28.60;99.90;;;;;;5018448;28;20022;-68
2023/08/22 10:26:20;;;;;;;8.63;2.38;;;28.80;99.90;;;;;;5019129;28;20073;-68
2023/08/22 10:29:15;;;;;;;4.10;2.35;;;29.00;99.90;;;;;;5019222;28;20076;-68
2023/08/22 10:32:00;;;;;;;7.78;2.03;;;29.20;99.90;;;;;;5019240;28;20077;-68
2023/08/22 10:34:26;;;;;;;5.25;2.00;;;29.10;99.90;;;;;;5018766;28;20030;-68
2023/08/22 10:36:59;;;;;;;3.33;2.38;;;28.90;99.90;;;;;;5017354;28;20164;-68
2023/08/22 10:39:46;;;;;;;4.38;2.75;;;29.10;99.90;;;;;;5018747;28;20040;-68
2023/08/22 10:42:22;;;;;;;4.63;2.40;;;29.50;99.90;;;;;;5018348;28;20033;-68
2023/08/22 10:44:56;;;;;;;5.53;2.53;;;29.60;99.90;;;;;;5018468;28;20045;-69
2023/08/22 10:47:32;;;;;;;6.95;2.75;;;29.40;99.90;;;;;;5018912;28;20034;-69
2023/08/22 10:50:00;;;;;;;6.47;2.50;;;29.20;99.90;;;;;;5018931;28;20101;-69
2023/08/22 10:52:37;;;;;;;7.38;3.17;;;28.80;99.90;;;;;;5018024;28;20026;-69
2023/08/22 10:55:03;;;;;;;8.48;2.92;;;28.60;99.90;;;;;;5018660;28;20034;-69
2023/08/22 10:57:30;;;;;;;3.55;2.75;;;28.80;99.90;;;;;;5017809;28;20034;-69
2023/08/22 10:59:58;;;;;;;5.95;2.70;;;28.90;99.90;;;;;;5017915;28;20072;-69
2023/08/22 11:02:32;;;;;;;9.43;2.95;;;30.10;99.90;;;;;;5018695;28;20022;-69
2023/08/22 11:05:00;;;;;;;3.65;2.50;;;31.10;99.90;;;;;;5018033;28;20049;-69
2023/08/22 11:07:27;;;;;;;4.90;2.30;;;32.20;99.90;;;;;;5017522;28;20025;-69
2023/08/22 11:09:54;;;;;;;5.93;2.33;;;32.90;99.90;;;;;;5018002;28;20026;-69
2023/08/22 11:12:21;;;;;;;8.38;2.67;;;33.50;99.90;;;;;;5018085;28;20025;-69
2023/08/22 11:14:47;;;;;;;4.53;2.58;;;33.80;99.90;;;;;;5018067;28;20026;-69
2023/08/22 11:17:14;;;;;;;6.78;2.80;;;34.60;99.90;;;;;;5017492;28;20034;-69
2023/08/22 11:19:41;;;;;;;3.75;2.45;;;34.50;98.60;;;;;;5018301;28;20033;-69
2023/08/22 11:22:06;;;;;;;8.55;2.50;;;35.10;96.10;;;;;;5017593;28;20022;-69
2023/08/22 11:24:32;;;;;;;4.90;2.13;;;34.60;97.30;;;;;;5017262;28;20036;-69
2023/08/22 11:27:04;;;;;;;6.05;2.22;;;34.90;96.60;;;;;;5017413;28;20029;-69
2023/08/22 11:29:43;;;;;;;8.00;2.63;;;35.10;95.10;;;;;;5018386;28;20090;-69
2023/08/22 11:32:24;;;;;;;4.90;2.40;;;33.90;96.40;;;;;;5017252;28;20036;-69
2023/08/22 11:34:55;;;;;;;7.40;2.85;;;34.90;95.10;;;;;;5017567;28;20018;-69
2023/08/22 11:37:21;;;;;;;5.40;2.40;;;35.80;93.70;;;;;;5018117;28;20022;-69
2023/08/22 11:39:51;;;;;;;6.20;2.92;;;36.20;92.60;;;;;;5017049;28;20026;-69
2023/08/22 11:42:18;;;;;;;4.47;2.33;;;35.40;92.00;;;;;;5017950;28;20026;-69
2023/08/22 11:45:09;;;;;;;5.32;2.38;;;35.20;93.40;;;;;;5017221;28;20041;-69
2023/08/22 11:47:48;;;;;;;6.07;2.47;;;34.50;94.40;;;;;;5017265;28;20026;-69
2023/08/22 11:50:25;;;;;;;5.05;2.70;;;33.10;96.10;;;;;;5016937;28;20029;-69
2023/08/22 11:52:56;;;;;;;4.40;2.78;;;32.30;96.70;;;;;;5017735;28;20057;-69
2023/08/22 11:55:26;;;;;;;5.82;2.40;;;32.20;98.10;;;;;;5017726;28;20090;-69
2023/08/22 11:58:16;;;;;;;7.32;2.55;;;32.10;98.90;;;;;;5017904;28;20044;-69
2023/08/22 12:00:42;;;;;;;7.13;2.03;;;31.90;98.50;;;;;;5009566;28;20076;-69
2023/08/22 12:03:09;;;;;;;5.82;2.17;;;31.70;99.30;;;;;;5016956;28;20026;-69
2023/08/22 12:05:40;;;;;;;2.65;1.73;;;31.90;96.60;;;;;;5017598;28;20033;-69
2023/08/22 12:08:05;;;;;;;3.88;2.20;;;32.60;95.60;;;;;;5016826;28;20026;-68
2023/08/22 12:10:47;;;;;;;8.02;2.38;;;32.90;96.10;;;;;;5016590;28;20018;-68
2023/08/22 12:13:18;;;;;;;2.55;2.13;;;32.80;98.00;;;;;;5016657;28;20056;-68
2023/08/22 12:15:44;;;;;;;4.40;2.10;;;32.70;96.90;;;;;;5016874;28;20028;-68
2023/08/22 12:18:10;;;;;;;5.45;2.08;;;32.60;96.80;;;;;;5016510;28;20030;-68
2023/08/22 12:20:41;;;;;;;6.93;2.78;;;32.80;97.40;;;;;;5016405;28;20033;-68
2023/08/22 12:23:10;;;;;;;4.93;2.30;;;33.20;94.70;;;;;;5017443;28;20026;-69
2023/08/22 12:25:38;;;;;;;2.88;1.98;;;33.30;95.80;;;;;;5017317;28;20057;-68
2023/08/22 12:28:04;;;;;;;5.43;2.20;;;33.90;93.80;;;;;;5017437;28;20022;-68
2023/08/22 12:30:35;;;;;;;6.50;2.35;;;33.40;92.70;;;;;;5017219;28;20051;-68
2023/08/22 12:33:05;;;;;;;3.63;1.95;;;33.00;93.50;;;;;;5016333;28;20076;-68
2023/08/22 12:35:38;;;;;;;6.75;2.20;;;32.90;93.60;;;;;;5017774;28;20029;-68
2023/08/22 12:38:03;;;;;;;6.63;1.90;;;33.10;94.20;;;;;;5016357;28;20045;-68
2023/08/22 12:40:29;;;;;;;3.63;2.40;;;33.80;93.50;;;;;;5016814;28;20034;-68
2023/08/22 12:42:55;;;;;;;13.30;2.55;;;33.80;94.50;;;;;;5017419;28;20033;-68